createdAt,value
2022-10-17T00:01:42.806Z,101478.00
2022-10-17T00:04:09.591Z,101473.38
2022-10-17T00:06:36.407Z,101480.56
2022-10-17T00:09:03.177Z,101464.94
2022-10-17T00:11:29.955Z,101470.84
2022-10-17T00:13:56.740Z,101476.59
2022-10-17T00:16:23.498Z,101471.50
2022-10-17T00:18:50.253Z,101470.69
2022-10-17T00:21:17.054Z,101471.72
2022-10-17T00:23:43.812Z,101465.19
2022-10-17T00:26:10.578Z,101468.75
2022-10-17T00:28:37.380Z,101473.94
2022-10-17T00:31:04.226Z,101479.22
2022-10-17T00:33:31.253Z,101477.97
2022-10-17T00:35:58.025Z,101473.59
2022-10-17T00:38:24.780Z,101472.41
2022-10-17T00:40:51.550Z,101474.16
2022-10-17T00:43:18.370Z,101471.63
2022-10-17T00:45:45.118Z,101471.63
2022-10-17T00:48:11.972Z,101469.34
2022-10-17T00:50:38.753Z,101469.63
2022-10-17T00:53:05.552Z,101468.97
2022-10-17T00:55:32.307Z,101475.97
2022-10-17T00:57:59.168Z,101468.34
2022-10-17T01:00:25.906Z,101473.84
2022-10-17T01:02:52.658Z,101469.19
2022-10-17T01:05:19.476Z,101465.44
2022-10-17T01:07:46.236Z,101462.72
2022-10-17T01:10:13.026Z,101465.00
2022-10-17T01:12:39.864Z,101471.44
2022-10-17T01:15:06.611Z,101465.91
2022-10-17T01:17:33.354Z,101468.41
2022-10-17T01:20:00.226Z,101461.50
2022-10-17T01:22:27.401Z,101465.75
2022-10-17T01:24:54.501Z,101464.31
2022-10-17T01:27:21.301Z,101462.38
2022-10-17T01:29:48.102Z,101453.09
2022-10-17T01:32:14.899Z,101453.53
2022-10-17T01:34:41.685Z,101445.06
2022-10-17T01:37:08.461Z,101446.13
2022-10-17T01:39:36.969Z,101441.22
2022-10-17T01:42:05.249Z,101436.53
2022-10-17T01:44:31.997Z,101432.41
2022-10-17T01:46:58.755Z,101432.38
2022-10-17T01:49:25.712Z,101435.16
2022-10-17T01:51:52.516Z,101420.78
2022-10-17T01:54:19.264Z,101420.63
2022-10-17T01:56:46.018Z,101416.81
2022-10-17T01:59:12.763Z,101419.56
2022-10-17T02:01:39.542Z,101421.72
2022-10-17T02:04:06.476Z,101423.44
2022-10-17T02:06:33.229Z,101437.41
2022-10-17T02:08:59.972Z,101427.88
2022-10-17T02:11:26.772Z,101424.94
2022-10-17T02:13:53.564Z,101425.59
2022-10-17T02:16:20.306Z,101428.75
2022-10-17T02:18:47.093Z,101426.44
2022-10-17T02:21:13.907Z,101427.88
2022-10-17T02:23:40.658Z,101417.69
2022-10-17T02:26:07.421Z,101420.44
2022-10-17T02:28:34.188Z,101420.09
2022-10-17T02:31:00.965Z,101411.19
2022-10-17T02:33:27.712Z,101412.34
2022-10-17T02:35:54.457Z,101407.97
2022-10-17T02:38:21.203Z,101414.97
2022-10-17T02:40:47.975Z,101406.94
2022-10-17T02:43:14.767Z,101411.81
2022-10-17T02:45:41.536Z,101410.75
2022-10-17T02:48:08.354Z,101412.28
2022-10-17T02:50:35.176Z,101406.09
2022-10-17T02:53:01.921Z,101417.56
2022-10-17T02:55:28.669Z,101415.84
2022-10-17T02:57:55.408Z,101419.22
2022-10-17T03:00:22.192Z,101413.34
2022-10-17T03:02:48.956Z,101420.09
2022-10-17T03:05:15.717Z,101425.63
2022-10-17T03:07:42.461Z,101430.03
2022-10-17T03:10:09.248Z,101437.25
2022-10-17T03:12:35.987Z,101425.78
2022-10-17T03:15:02.795Z,101422.72
2022-10-17T03:17:29.568Z,101429.78
2022-10-17T03:19:56.311Z,101428.94
2022-10-17T03:22:23.133Z,101427.66
2022-10-17T03:24:50.357Z,101425.16
2022-10-17T03:27:17.114Z,101421.75
2022-10-17T03:29:43.878Z,101417.94
2022-10-17T03:32:10.677Z,101413.94
2022-10-17T03:34:37.425Z,101412.69
2022-10-17T03:37:04.179Z,101406.09
2022-10-17T03:39:30.942Z,101404.50
2022-10-17T03:41:57.689Z,101401.81
2022-10-17T03:44:24.437Z,101397.75
2022-10-17T03:46:51.272Z,101402.53
2022-10-17T03:49:18.007Z,101413.88
2022-10-17T03:51:44.758Z,101413.25
2022-10-17T03:54:11.511Z,101407.25
2022-10-17T03:56:38.289Z,101417.66
2022-10-17T03:59:05.072Z,101428.91
2022-10-17T04:01:32.033Z,101432.13
2022-10-17T04:03:58.881Z,101423.44
2022-10-17T04:06:25.625Z,101434.03
2022-10-17T04:08:52.388Z,101426.00
2022-10-17T04:11:19.170Z,101425.81
2022-10-17T04:13:45.968Z,101430.66
2022-10-17T04:16:12.764Z,101432.34
2022-10-17T04:18:39.548Z,101435.50
2022-10-17T04:21:06.671Z,101432.31
2022-10-17T04:23:33.431Z,101424.06
2022-10-17T04:26:00.173Z,101435.00
2022-10-17T04:28:27.001Z,101441.78
2022-10-17T04:30:54.180Z,101433.31
2022-10-17T04:33:20.967Z,101430.81
2022-10-17T04:35:47.717Z,101427.38
2022-10-17T04:38:14.472Z,101431.63
2022-10-17T04:40:41.244Z,101433.56
2022-10-17T04:43:07.985Z,101431.91
2022-10-17T04:45:34.746Z,101441.63
2022-10-17T04:48:01.497Z,101435.31
2022-10-17T04:50:28.242Z,101439.97
2022-10-17T04:52:55.004Z,101433.63
2022-10-17T04:55:21.746Z,101431.09
2022-10-17T04:57:48.488Z,101434.69
2022-10-17T05:00:15.337Z,101428.56
2022-10-17T05:02:42.080Z,101426.13
2022-10-17T05:05:08.838Z,101426.72
2022-10-17T05:07:35.604Z,101432.00
2022-10-17T05:10:02.638Z,101439.59
2022-10-17T05:12:29.641Z,101446.50
2022-10-17T05:14:56.544Z,101439.41
2022-10-17T05:17:23.338Z,101446.22
2022-10-17T05:19:50.091Z,101440.13
2022-10-17T05:22:16.839Z,101444.78
2022-10-17T05:24:43.625Z,101442.69
2022-10-17T05:27:10.369Z,101452.19
2022-10-17T05:29:37.349Z,101448.63
2022-10-17T05:32:04.109Z,101452.03
2022-10-17T05:34:30.856Z,101453.31
2022-10-17T05:36:57.629Z,101448.47
2022-10-17T05:39:24.373Z,101447.59
2022-10-17T05:41:52.330Z,101438.22
2022-10-17T05:44:19.097Z,101440.81
2022-10-17T05:46:45.844Z,101430.28
2022-10-17T05:49:19.650Z,101445.00
2022-10-17T05:51:58.605Z,101446.81
2022-10-17T05:54:25.332Z,101447.44
2022-10-17T05:56:52.252Z,101447.25
2022-10-17T05:59:19.019Z,101447.88
2022-10-17T06:01:45.798Z,101444.56
2022-10-17T06:04:12.618Z,101448.63
2022-10-17T06:06:39.371Z,101449.25
2022-10-17T06:09:06.144Z,101443.13
2022-10-17T06:11:32.890Z,101436.59
2022-10-17T06:13:59.653Z,101447.19
2022-10-17T06:16:26.405Z,101450.78
2022-10-17T06:18:53.151Z,101448.47
2022-10-17T06:21:19.905Z,101450.78
2022-10-17T06:23:46.863Z,101453.84
2022-10-17T06:26:13.654Z,101456.09
2022-10-17T06:28:40.802Z,101460.13
2022-10-17T06:31:07.647Z,101462.19
2022-10-17T06:33:34.401Z,101463.19
2022-10-17T06:36:01.161Z,101467.03
2022-10-17T06:38:27.916Z,101464.69
2022-10-17T06:40:57.328Z,101468.31
2022-10-17T06:43:28.007Z,101470.69
2022-10-17T06:45:54.884Z,101475.13
2022-10-17T06:48:21.622Z,101481.88
2022-10-17T06:50:48.374Z,101488.66
2022-10-17T06:53:15.122Z,101490.97
2022-10-17T06:55:42.801Z,101492.94
2022-10-17T06:58:09.569Z,101495.81
2022-10-17T07:00:36.482Z,101488.00
2022-10-17T07:03:03.325Z,101488.06
2022-10-17T07:05:30.096Z,101498.72
2022-10-17T07:07:56.845Z,101500.44
2022-10-17T07:10:23.610Z,101503.47
2022-10-17T07:12:50.387Z,101500.72
2022-10-17T07:15:17.208Z,101502.22
2022-10-17T07:17:43.989Z,101497.31
2022-10-17T07:20:10.793Z,101501.75
2022-10-17T07:22:37.548Z,101494.84
2022-10-17T07:25:04.312Z,101502.22
2022-10-17T07:27:31.230Z,101498.66
2022-10-17T07:29:58.154Z,101508.00
2022-10-17T07:32:25.017Z,101504.63
2022-10-17T07:34:51.867Z,101517.19
2022-10-17T07:37:18.695Z,101517.81
2022-10-17T07:39:45.516Z,101517.03
2022-10-17T07:42:12.340Z,101522.09
2022-10-17T07:44:39.109Z,101518.28
2022-10-17T07:47:05.885Z,101514.19
2022-10-17T07:49:32.724Z,101516.31
2022-10-17T07:51:59.500Z,101511.59
2022-10-17T07:54:26.299Z,101507.78
2022-10-17T07:56:53.057Z,101516.22
2022-10-17T07:59:19.817Z,101519.00
2022-10-17T08:01:46.592Z,101520.59
2022-10-17T08:04:13.345Z,101530.97
2022-10-17T08:06:40.083Z,101532.25
2022-10-17T08:09:06.970Z,101529.72
2022-10-17T08:11:34.566Z,101523.81
2022-10-17T08:14:01.305Z,101533.34
2022-10-17T08:16:28.045Z,101529.91
2022-10-17T08:18:54.898Z,101538.22
2022-10-17T08:21:21.714Z,101528.13
2022-10-17T08:23:48.473Z,101533.88
2022-10-17T08:26:17.390Z,101535.31
2022-10-17T08:28:44.326Z,101523.31
2022-10-17T08:31:11.311Z,101521.59
2022-10-17T08:33:38.085Z,101520.81
2022-10-17T08:36:04.827Z,101521.91
2022-10-17T08:38:35.151Z,101511.97
2022-10-17T08:41:02.490Z,101510.88
2022-10-17T08:43:33.272Z,101500.44
2022-10-17T08:46:03.083Z,101495.16
2022-10-17T08:48:29.878Z,101489.81
2022-10-17T08:50:56.738Z,101491.53
2022-10-17T08:53:23.815Z,101496.00
2022-10-17T08:55:50.612Z,101493.72
2022-10-17T08:58:17.362Z,101487.38
2022-10-17T09:00:46.110Z,101497.56
2022-10-17T09:03:12.904Z,101485.94
2022-10-17T09:05:39.716Z,101490.34
2022-10-17T09:08:06.459Z,101493.72
2022-10-17T09:10:33.222Z,101491.94
2022-10-17T09:13:02.836Z,101493.09
2022-10-17T09:15:33.504Z,101491.19
2022-10-17T09:18:00.275Z,101494.31
2022-10-17T09:20:27.125Z,101485.25
2022-10-17T09:22:53.950Z,101482.03
2022-10-17T09:25:20.996Z,101475.78
2022-10-17T09:27:47.897Z,101485.88
2022-10-17T09:30:21.453Z,101485.78
2022-10-17T09:33:00.186Z,101488.13
2022-10-17T09:35:26.992Z,101488.19
2022-10-17T09:37:53.778Z,101484.81
2022-10-17T09:40:20.726Z,101490.75
2022-10-17T09:42:47.460Z,101482.94
2022-10-17T09:45:14.206Z,101493.66
2022-10-17T09:47:41.306Z,101491.53
2022-10-17T09:50:08.180Z,101491.47
2022-10-17T09:52:34.952Z,101492.47
2022-10-17T09:55:01.739Z,101491.13
2022-10-17T09:57:28.501Z,101494.53
2022-10-17T09:59:55.253Z,101495.00
2022-10-17T10:02:22.058Z,101503.88
2022-10-17T10:05:03.859Z,101497.34
2022-10-17T10:07:31.684Z,101510.50
2022-10-17T10:09:58.497Z,101508.16
2022-10-17T10:12:25.340Z,101512.41
2022-10-17T10:14:54.711Z,101513.03
2022-10-17T10:17:22.128Z,101516.47
2022-10-17T10:19:48.906Z,101515.25
2022-10-17T10:22:15.739Z,101513.19
2022-10-17T10:24:42.485Z,101510.66
2022-10-17T10:27:09.233Z,101521.69
2022-10-17T10:29:36.004Z,101523.56
2022-10-17T10:32:02.763Z,101526.25
2022-10-17T10:34:29.559Z,101515.31
2022-10-17T10:36:56.442Z,101513.88
2022-10-17T10:39:23.196Z,101502.97
2022-10-17T10:41:49.977Z,101500.44
2022-10-17T10:44:16.748Z,101505.97
2022-10-17T10:46:43.510Z,101500.34
2022-10-17T10:49:10.268Z,101497.88
2022-10-17T10:51:37.025Z,101502.75
2022-10-17T10:54:03.822Z,101509.59
2022-10-17T10:56:30.589Z,101508.34
2022-10-17T10:58:57.336Z,101504.75
2022-10-17T11:01:24.269Z,101507.81
2022-10-17T11:03:51.009Z,101493.66
2022-10-17T11:06:17.827Z,101502.84
2022-10-17T11:08:44.641Z,101500.72
2022-10-17T11:11:13.757Z,101503.81
2022-10-17T11:13:40.565Z,101500.94
2022-10-17T11:16:07.328Z,101502.63
2022-10-17T11:18:34.348Z,101506.44
2022-10-17T11:21:01.142Z,101507.72
2022-10-17T11:23:28.169Z,101499.97
2022-10-17T11:25:54.912Z,101493.50
2022-10-17T11:28:21.753Z,101503.72
2022-10-17T11:30:48.550Z,101501.13
2022-10-17T11:33:15.295Z,101501.25
2022-10-17T11:35:42.047Z,101497.06
2022-10-17T11:38:08.867Z,101502.19
2022-10-17T11:40:35.628Z,101503.06
2022-10-17T11:43:02.387Z,101503.28
2022-10-17T11:45:29.188Z,101504.53
2022-10-17T11:47:55.933Z,101497.63
2022-10-17T11:53:09.755Z,101494.06
2022-10-17T11:55:38.292Z,101489.84
2022-10-17T11:58:05.466Z,101489.69
2022-10-17T12:00:32.564Z,101490.16
2022-10-17T12:02:59.441Z,101481.47
2022-10-17T12:05:26.204Z,101470.25
2022-10-17T12:07:53.097Z,101476.19
2022-10-17T12:10:19.970Z,101469.03
2022-10-17T12:12:48.086Z,101467.34
2022-10-17T12:15:14.879Z,101470.34
2022-10-17T12:17:41.706Z,101469.31
2022-10-17T12:20:08.452Z,101465.94
2022-10-17T12:22:35.210Z,101470.41
2022-10-17T12:25:02.228Z,101463.25
2022-10-17T12:27:29.165Z,101462.44
2022-10-17T12:29:56.073Z,101462.81
2022-10-17T12:32:22.828Z,101469.19
2022-10-17T12:34:49.584Z,101461.59
2022-10-17T12:37:16.384Z,101461.81
2022-10-17T12:39:43.180Z,101467.75
2022-10-17T12:42:09.930Z,101460.59
2022-10-17T12:44:37.878Z,101471.25
2022-10-17T12:47:04.640Z,101479.72
2022-10-17T12:49:31.617Z,101475.13
2022-10-17T12:51:58.377Z,101478.72
2022-10-17T12:54:25.744Z,101474.06
2022-10-17T12:56:52.503Z,101466.44
2022-10-17T12:59:19.252Z,101465.69
2022-10-17T13:01:46.361Z,101467.09
2022-10-17T13:04:13.310Z,101458.06
2022-10-17T13:06:40.320Z,101478.03
2022-10-17T13:09:07.242Z,101468.31
2022-10-17T13:11:33.985Z,101472.38
2022-10-17T13:14:00.762Z,101479.34
2022-10-17T13:16:27.561Z,101470.47
2022-10-17T13:18:54.310Z,101470.81
2022-10-17T13:21:21.666Z,101464.47
2022-10-17T13:23:50.698Z,101475.28
2022-10-17T13:26:19.972Z,101482.34
2022-10-17T13:28:46.880Z,101474.59
2022-10-17T13:31:13.761Z,101477.88
2022-10-17T13:33:40.740Z,101478.72
2022-10-17T13:36:07.529Z,101477.66
2022-10-17T13:38:36.652Z,101482.72
2022-10-17T13:41:30.546Z,101487.19
2022-10-17T13:43:52.823Z,101483.91
2022-10-17T13:46:36.905Z,101482.53
2022-10-17T13:49:04.989Z,101481.03
2022-10-17T13:51:31.756Z,101478.44
2022-10-17T13:53:58.625Z,101478.00
2022-10-17T13:56:29.925Z,101474.00
2022-10-17T13:58:57.549Z,101473.84
2022-10-17T14:01:24.318Z,101485.06
2022-10-17T14:04:02.147Z,101481.69
2022-10-17T14:06:34.896Z,101480.19
2022-10-17T14:09:01.675Z,101486.91
2022-10-17T14:11:28.536Z,101488.53
2022-10-17T14:13:55.285Z,101493.09
2022-10-17T14:16:22.086Z,101504.44
2022-10-17T14:18:49.268Z,101505.09
2022-10-17T14:21:44.951Z,101496.84
2022-10-17T14:24:02.892Z,101503.91
2022-10-17T14:26:29.732Z,101512.56
2022-10-17T14:28:56.530Z,101508.84
2022-10-17T14:31:25.595Z,101500.16
2022-10-17T14:33:52.589Z,101507.72
2022-10-17T14:36:19.539Z,101508.78
2022-10-17T14:38:47.027Z,101509.72
2022-10-17T14:44:00.678Z,101514.69
2022-10-17T14:46:27.432Z,101522.75
2022-10-17T14:48:54.578Z,101523.38
2022-10-17T14:51:21.557Z,101522.47
2022-10-17T14:53:48.305Z,101507.97
2022-10-17T14:56:15.050Z,101516.16
2022-10-17T14:58:41.809Z,101519.56
2022-10-17T15:01:08.699Z,101522.34
2022-10-17T15:03:35.502Z,101517.16
2022-10-17T15:06:04.658Z,101519.06
2022-10-17T15:08:31.496Z,101520.19
2022-10-17T15:10:58.365Z,101532.03
2022-10-17T15:13:27.963Z,101532.66
2022-10-17T15:15:55.917Z,101529.19
2022-10-17T15:18:22.672Z,101534.53
2022-10-17T15:20:55.379Z,101541.34
2022-10-17T15:23:31.571Z,101534.41
2022-10-17T15:25:58.336Z,101533.44
2022-10-17T15:28:25.119Z,101539.84
2022-10-17T15:30:51.902Z,101536.22
2022-10-17T15:33:18.674Z,101544.97
2022-10-17T15:35:45.867Z,101533.13
2022-10-17T15:38:12.641Z,101530.81
2022-10-17T15:40:39.576Z,101532.13
2022-10-17T15:43:06.329Z,101533.19
2022-10-17T15:45:33.084Z,101529.69
2022-10-17T15:47:59.917Z,101515.81
2022-10-17T15:50:28.912Z,101522.44
2022-10-17T15:52:55.657Z,101533.72
2022-10-17T15:55:22.409Z,101535.66
2022-10-17T15:57:49.168Z,101539.03
2022-10-17T16:00:16.785Z,101541.38
2022-10-17T16:02:43.647Z,101550.63
2022-10-17T16:05:10.403Z,101549.19
2022-10-17T16:07:37.148Z,101547.91
2022-10-17T16:10:03.917Z,101553.75
2022-10-17T16:12:33.592Z,101557.44
2022-10-17T16:15:00.451Z,101551.19
2022-10-17T16:17:27.390Z,101548.97
2022-10-17T16:19:54.369Z,101547.06
2022-10-17T16:22:21.106Z,101552.56
2022-10-17T16:24:47.871Z,101544.00
2022-10-17T16:27:14.646Z,101553.78
2022-10-17T16:29:41.395Z,101557.09
2022-10-17T16:32:08.144Z,101551.84
2022-10-17T16:34:34.998Z,101558.56
2022-10-17T16:37:01.784Z,101556.31
2022-10-17T16:42:00.212Z,101553.44
2022-10-17T16:44:26.983Z,101561.28
2022-10-17T16:46:53.745Z,101559.22
2022-10-17T16:49:20.519Z,101557.88
2022-10-17T16:51:47.458Z,101570.41
2022-10-17T16:54:14.240Z,101574.09
2022-10-17T16:56:42.049Z,101564.22
2022-10-17T16:59:08.814Z,101574.94
2022-10-17T17:01:35.617Z,101584.00
2022-10-17T17:04:04.428Z,101581.75
2022-10-17T17:06:31.195Z,101581.34
2022-10-17T17:08:57.995Z,101581.38
2022-10-17T17:11:24.771Z,101590.09
2022-10-17T17:13:51.513Z,101587.19
2022-10-17T17:16:18.273Z,101597.78
2022-10-17T17:18:45.970Z,101594.72
2022-10-17T17:21:12.716Z,101600.84
2022-10-17T17:23:39.563Z,101602.84
2022-10-17T17:26:06.332Z,101609.63
2022-10-17T17:28:33.092Z,101614.53
2022-10-17T17:30:59.890Z,101614.59
2022-10-17T17:33:26.785Z,101614.63
2022-10-17T17:35:53.533Z,101615.47
2022-10-17T17:38:20.280Z,101612.09
2022-10-17T17:40:50.593Z,101614.94
2022-10-17T17:43:17.862Z,101619.66
2022-10-17T17:45:44.779Z,101620.44
2022-10-17T17:48:12.209Z,101623.53
2022-10-17T17:50:38.983Z,101634.88
2022-10-17T17:53:05.789Z,101627.75
2022-10-17T17:55:32.605Z,101637.47
2022-10-17T17:57:59.344Z,101639.22
2022-10-17T18:00:26.130Z,101644.50
2022-10-17T18:02:52.976Z,101637.03
2022-10-17T18:05:19.721Z,101638.97
2022-10-17T18:07:46.490Z,101640.00
2022-10-17T18:12:42.395Z,101637.44
2022-10-17T18:15:09.161Z,101649.56
2022-10-17T18:17:36.040Z,101650.72
2022-10-17T18:20:03.399Z,101648.63
2022-10-17T18:22:30.528Z,101657.19
2022-10-17T18:24:57.495Z,101656.44
2022-10-17T18:27:24.454Z,101663.72
2022-10-17T18:29:51.522Z,101667.34
2022-10-17T18:32:18.280Z,101663.63
2022-10-17T18:34:45.032Z,101679.44
2022-10-17T18:37:11.791Z,101680.56
2022-10-17T18:39:38.563Z,101686.09
2022-10-17T18:42:05.317Z,101680.28
2022-10-17T18:44:32.118Z,101675.72
2022-10-17T18:47:02.972Z,101683.53
2022-10-17T18:49:31.116Z,101690.03
2022-10-17T18:51:59.401Z,101691.72
2022-10-17T18:54:26.180Z,101694.25
2022-10-17T18:56:52.952Z,101699.19
2022-10-17T18:59:19.708Z,101700.47
2022-10-17T19:01:46.514Z,101712.34
2022-10-17T19:04:13.470Z,101709.84
2022-10-17T19:06:40.268Z,101705.56
2022-10-17T19:09:07.078Z,101703.03
2022-10-17T19:11:33.832Z,101696.25
2022-10-17T19:14:00.662Z,101693.34
2022-10-17T19:16:27.476Z,101698.84
2022-10-17T19:18:54.377Z,101688.78
2022-10-17T19:21:22.033Z,101691.75
2022-10-17T19:23:49.217Z,101697.13
2022-10-17T19:26:15.964Z,101695.22
2022-10-17T19:28:43.179Z,101696.94
2022-10-17T19:31:12.980Z,101706.03
2022-10-17T19:33:42.158Z,101708.63
2022-10-17T19:36:08.957Z,101702.81
2022-10-17T19:38:35.731Z,101699.06
2022-10-17T19:41:02.470Z,101697.13
2022-10-17T19:43:29.284Z,101702.84
2022-10-17T19:45:56.021Z,101705.38
2022-10-17T19:48:22.816Z,101711.72
2022-10-17T19:50:52.932Z,101700.00
2022-10-17T19:53:19.764Z,101704.84
2022-10-17T19:55:46.527Z,101712.94
2022-10-17T19:58:13.368Z,101709.78
2022-10-17T20:00:40.109Z,101711.22
2022-10-17T20:03:06.853Z,101719.72
2022-10-17T20:05:33.609Z,101718.69
2022-10-17T20:08:00.346Z,101721.06
2022-10-17T20:10:27.109Z,101718.97
2022-10-17T20:12:53.896Z,101726.59
2022-10-17T20:15:20.649Z,101725.97
2022-10-17T20:17:47.481Z,101728.44
2022-10-17T20:20:14.264Z,101727.31
2022-10-17T20:22:41.085Z,101734.34
2022-10-17T20:25:07.830Z,101727.47
2022-10-17T20:27:34.585Z,101737.78
2022-10-17T20:30:02.296Z,101731.44
2022-10-17T20:32:29.272Z,101739.22
2022-10-17T20:34:56.347Z,101736.28
2022-10-17T20:37:23.094Z,101737.22
2022-10-17T20:39:59.917Z,101735.84
2022-10-17T20:42:36.900Z,101742.56
2022-10-17T20:45:03.717Z,101743.66
2022-10-17T20:47:44.225Z,101747.81
2022-10-17T20:50:12.952Z,101755.81
2022-10-17T20:52:39.697Z,101769.72
2022-10-17T20:55:06.474Z,101779.63
2022-10-17T20:57:33.241Z,101779.72
2022-10-17T20:59:59.984Z,101775.16
2022-10-17T21:02:26.737Z,101776.50
2022-10-17T21:04:53.483Z,101777.31
2022-10-17T21:07:22.070Z,101786.69
2022-10-17T21:09:48.807Z,101803.19
2022-10-17T21:12:25.799Z,101802.78
2022-10-17T21:15:02.425Z,101805.03
2022-10-17T21:17:29.196Z,101802.53
2022-10-17T21:19:56.109Z,101806.59
2022-10-17T21:22:22.904Z,101808.59
2022-10-17T21:24:49.657Z,101812.53
2022-10-17T21:27:16.405Z,101822.97
2022-10-17T21:29:43.201Z,101820.31
2022-10-17T21:32:19.485Z,101811.25
2022-10-17T21:34:56.909Z,101817.16
2022-10-17T21:37:23.663Z,101820.22
2022-10-17T21:39:50.404Z,101826.84
2022-10-17T21:42:17.135Z,101819.47
2022-10-17T21:44:43.898Z,101819.03
2022-10-17T21:47:10.641Z,101814.25
2022-10-17T21:49:38.086Z,101817.19
2022-10-17T21:52:07.101Z,101828.75
2022-10-17T21:54:33.877Z,101835.97
2022-10-17T21:57:00.613Z,101835.34
2022-10-17T21:59:27.413Z,101834.84
2022-10-17T22:01:54.248Z,101837.78
2022-10-17T22:04:21.089Z,101830.66
2022-10-17T22:06:47.849Z,101843.41
2022-10-17T22:09:14.635Z,101827.97
2022-10-17T22:11:41.562Z,101832.16
2022-10-17T22:14:08.310Z,101842.97
2022-10-17T22:16:35.057Z,101841.34
2022-10-17T22:19:05.884Z,101847.63
2022-10-17T22:21:33.437Z,101847.81
2022-10-17T22:24:00.361Z,101853.94
2022-10-17T22:26:27.110Z,101857.97
2022-10-17T22:28:53.963Z,101857.16
2022-10-17T22:31:20.772Z,101858.22
2022-10-17T22:33:47.521Z,101853.53
2022-10-17T22:36:14.294Z,101860.03
2022-10-17T22:38:41.041Z,101864.84
2022-10-17T22:41:07.787Z,101851.28
2022-10-17T22:43:34.602Z,101862.91
2022-10-17T22:46:01.349Z,101862.72
2022-10-17T22:48:28.101Z,101862.94
2022-10-17T22:50:54.862Z,101849.50
2022-10-17T22:53:26.336Z,101859.03
2022-10-17T22:55:53.076Z,101862.13
2022-10-17T22:58:19.889Z,101866.59
2022-10-17T23:00:46.641Z,101859.56
2022-10-17T23:03:13.399Z,101862.75
2022-10-17T23:05:40.205Z,101863.44
2022-10-17T23:08:06.951Z,101861.91
2022-10-17T23:10:33.738Z,101857.41
2022-10-17T23:13:00.484Z,101858.16
2022-10-17T23:15:27.246Z,101860.69
2022-10-17T23:17:54.192Z,101858.53
2022-10-17T23:20:20.999Z,101858.19
2022-10-17T23:22:47.745Z,101865.03
2022-10-17T23:25:14.493Z,101865.16
2022-10-17T23:27:41.261Z,101872.72
2022-10-17T23:30:08.004Z,101870.81
2022-10-17T23:32:34.753Z,101873.47
2022-10-17T23:35:01.654Z,101862.34
2022-10-17T23:37:28.565Z,101864.84
2022-10-17T23:39:55.576Z,101865.50
2022-10-17T23:42:22.449Z,101864.91
2022-10-17T23:44:49.244Z,101868.25
2022-10-17T23:47:15.989Z,101862.91
2022-10-17T23:49:42.789Z,101864.16
2022-10-17T23:52:09.749Z,101871.06
2022-10-17T23:54:36.530Z,101873.66
2022-10-17T23:57:03.390Z,101871.69
2022-10-17T23:59:30.161Z,101877.84
